createdAt,value
2023-10-11T00:01:03.665Z,82.50
2023-10-11T00:03:33.779Z,82.50
2023-10-11T00:06:01.401Z,82.60
2023-10-11T00:08:28.527Z,82.60
2023-10-11T00:10:59.542Z,82.60
2023-10-11T00:13:27.613Z,82.60
2023-10-11T00:15:54.566Z,83.20
2023-10-11T00:18:25.690Z,82.80
2023-10-11T00:20:53.663Z,82.80
2023-10-11T00:23:23.897Z,82.80
2023-10-11T00:25:56.280Z,82.80
2023-10-11T00:28:27.849Z,82.80
2023-10-11T00:30:55.539Z,82.80
2023-10-11T00:33:35.072Z,82.80
2023-10-11T00:36:06.468Z,82.90
2023-10-11T00:38:33.623Z,82.90
2023-10-11T00:41:21.462Z,82.80
2023-10-11T00:43:54.817Z,82.80
2023-10-11T00:46:29.313Z,82.80
2023-10-11T00:48:58.119Z,82.90
2023-10-11T00:51:29.738Z,82.90
2023-10-11T00:53:57.301Z,82.90
2023-10-11T00:56:27.835Z,82.90
2023-10-11T00:58:54.979Z,82.90
2023-10-11T01:01:23.909Z,82.90
2023-10-11T01:03:53.334Z,82.90
2023-10-11T01:06:27.051Z,82.90
2023-10-11T01:08:56.234Z,82.90
2023-10-11T01:11:23.738Z,82.90
2023-10-11T01:13:53.678Z,82.90
2023-10-11T01:16:30.101Z,82.90
2023-10-11T01:18:59.439Z,82.90
2023-10-11T01:21:33.872Z,82.90
2023-10-11T01:24:00.979Z,82.80
2023-10-11T01:26:29.106Z,82.80
2023-10-11T01:28:58.183Z,82.70
2023-10-11T01:31:27.819Z,82.70
2023-10-11T01:33:56.991Z,82.70
2023-10-11T01:36:24.130Z,82.60
2023-10-11T01:38:51.344Z,82.60
2023-10-11T01:41:22.144Z,82.60
2023-10-11T01:43:52.606Z,82.60
2023-10-11T01:46:26.462Z,82.60
2023-10-11T01:48:56.344Z,82.50
2023-10-11T01:51:29.141Z,82.50
2023-10-11T01:53:56.759Z,82.50
2023-10-11T01:56:27.437Z,82.50
2023-10-11T01:58:54.749Z,82.50
2023-10-11T02:01:28.902Z,82.50
2023-10-11T02:04:11.711Z,82.50
2023-10-11T02:06:41.698Z,82.30
2023-10-11T02:09:13.715Z,82.40
2023-10-11T02:11:43.690Z,82.30
2023-10-11T02:14:15.386Z,82.30
2023-10-11T02:16:42.349Z,82.20
2023-10-11T02:19:10.794Z,82.30
2023-10-11T02:21:40.971Z,82.30
2023-10-11T02:24:10.930Z,82.30
2023-10-11T02:26:38.942Z,82.20
2023-10-11T02:29:16.701Z,82.20
2023-10-11T02:31:45.977Z,82.20
2023-10-11T02:34:15.805Z,82.20
2023-10-11T02:36:45.578Z,82.20
2023-10-11T02:39:22.993Z,82.20
2023-10-11T02:41:57.533Z,82.20
2023-10-11T02:44:25.308Z,82.20
2023-10-11T02:46:52.336Z,82.20
2023-10-11T02:49:22.427Z,82.20
2023-10-11T02:51:56.981Z,82.20
2023-10-11T02:54:40.635Z,82.20
2023-10-11T02:57:21.622Z,82.30
2023-10-11T02:59:52.227Z,82.20
2023-10-11T03:02:22.502Z,82.20
2023-10-11T03:04:49.960Z,82.20
2023-10-11T03:07:24.534Z,82.20
2023-10-11T03:09:51.811Z,82.20
2023-10-11T03:12:32.964Z,82.20
2023-10-11T03:15:08.001Z,82.30
2023-10-11T03:17:42.599Z,82.30
2023-10-11T03:20:29.828Z,82.30
2023-10-11T03:23:03.533Z,82.30
2023-10-11T03:25:31.320Z,82.40
2023-10-11T03:28:05.783Z,82.40
2023-10-11T03:30:36.842Z,82.50
2023-10-11T03:33:07.037Z,82.50
2023-10-11T03:35:39.809Z,82.50
2023-10-11T03:38:18.185Z,82.50
2023-10-11T03:41:05.420Z,82.40
2023-10-11T03:43:34.368Z,82.30
2023-10-11T03:46:03.704Z,82.30
2023-10-11T03:48:35.584Z,82.30
2023-10-11T03:51:08.475Z,82.30
2023-10-11T03:53:35.676Z,82.30
2023-10-11T03:56:03.628Z,82.30
2023-10-11T03:58:30.605Z,82.30
2023-10-11T04:01:07.592Z,82.30
2023-10-11T04:03:35.681Z,82.20
2023-10-11T04:06:07.266Z,82.20
2023-10-11T04:08:40.687Z,82.20
2023-10-11T04:11:15.475Z,82.20
2023-10-11T04:13:47.002Z,82.30
2023-10-11T04:16:14.834Z,82.40
2023-10-11T04:18:41.969Z,82.40
2023-10-11T04:21:12.263Z,82.40
2023-10-11T04:23:41.807Z,82.40
2023-10-11T04:26:09.739Z,82.30
2023-10-11T04:28:42.988Z,82.40
2023-10-11T04:31:28.665Z,82.40
2023-10-11T04:34:00.154Z,82.30
2023-10-11T04:36:29.772Z,82.40
2023-10-11T04:39:05.160Z,82.40
2023-10-11T04:41:46.683Z,82.30
2023-10-11T04:44:22.612Z,82.30
2023-10-11T04:46:59.773Z,82.30
2023-10-11T04:49:27.275Z,82.20
2023-10-11T04:52:00.541Z,82.10
2023-10-11T04:54:58.466Z,82.20
2023-10-11T04:57:37.806Z,82.10
2023-10-11T05:00:11.654Z,82.10
2023-10-11T05:02:40.209Z,82.00
2023-10-11T05:05:12.710Z,82.00
2023-10-11T05:07:44.490Z,81.90
2023-10-11T05:10:20.425Z,82.00
2023-10-11T05:12:48.394Z,82.50
2023-10-11T05:15:17.803Z,82.00
2023-10-11T05:17:52.421Z,82.00
2023-10-11T05:20:19.376Z,82.00
2023-10-11T05:22:49.160Z,82.00
2023-10-11T05:25:34.814Z,82.00
2023-10-11T05:28:20.514Z,82.00
2023-10-11T05:31:02.399Z,82.00
2023-10-11T05:33:50.500Z,82.10
2023-10-11T05:36:40.797Z,82.00
2023-10-11T05:39:26.379Z,82.10
2023-10-11T05:42:13.598Z,82.10
2023-10-11T05:44:59.273Z,82.20
2023-10-11T05:47:46.059Z,82.20
2023-10-11T05:50:31.788Z,82.20
2023-10-11T05:52:58.790Z,82.30
2023-10-11T05:55:25.667Z,82.30
2023-10-11T05:57:52.861Z,82.40
2023-10-11T06:00:26.836Z,82.40
2023-10-11T06:03:00.257Z,82.40
2023-10-11T06:05:27.394Z,82.40
2023-10-11T06:08:05.311Z,82.50
2023-10-11T06:10:43.190Z,82.50
2023-10-11T06:13:15.066Z,82.50
2023-10-11T06:16:00.297Z,82.50
2023-10-11T06:19:00.119Z,82.50
2023-10-11T06:21:32.718Z,82.50
2023-10-11T06:24:02.592Z,82.50
2023-10-11T06:26:38.640Z,82.50
2023-10-11T06:29:09.217Z,82.50
2023-10-11T06:31:40.833Z,82.50
2023-10-11T06:34:36.716Z,82.50
2023-10-11T06:37:03.878Z,82.50
2023-10-11T06:39:42.651Z,82.50
2023-10-11T06:42:30.534Z,82.50
2023-10-11T06:45:01.873Z,82.50
2023-10-11T06:47:35.368Z,82.40
2023-10-11T06:50:16.599Z,82.40
2023-10-11T06:52:49.513Z,82.40
2023-10-11T06:55:19.639Z,82.40
2023-10-11T06:57:53.535Z,82.40
2023-10-11T07:00:30.097Z,82.90
2023-10-11T07:03:09.753Z,82.30
2023-10-11T07:05:50.738Z,82.30
2023-10-11T07:08:29.179Z,82.80
2023-10-11T07:11:14.698Z,82.20
2023-10-11T07:14:00.796Z,82.20
2023-10-11T07:22:45.619Z,82.10
2023-10-11T07:25:42.236Z,82.00
2023-10-11T07:28:33.985Z,82.00
2023-10-11T07:35:22.602Z,81.90
2023-10-11T07:38:00.744Z,81.80
2023-10-11T07:40:47.296Z,81.80
2023-10-11T07:43:20.007Z,81.80
2023-10-11T07:52:29.333Z,81.80
2023-10-11T07:55:03.388Z,81.80
2023-10-11T07:58:07.247Z,81.90
2023-10-11T08:01:03.498Z,81.90
2023-10-11T08:03:42.972Z,81.80
2023-10-11T08:06:32.888Z,81.90
2023-10-11T08:09:47.537Z,81.90
2023-10-11T08:23:15.518Z,81.90
2023-10-11T08:30:03.070Z,82.00
2023-10-11T08:32:35.015Z,82.10
2023-10-11T08:35:01.916Z,82.00
2023-10-11T08:37:34.900Z,82.10
2023-10-11T08:40:15.593Z,82.70
2023-10-11T08:42:50.480Z,82.10
2023-10-11T08:45:29.936Z,82.10
2023-10-11T08:47:59.368Z,82.00
2023-10-11T08:50:28.294Z,82.00
2023-10-11T08:52:55.419Z,82.10
2023-10-11T08:55:27.237Z,82.10
2023-10-11T08:57:55.462Z,82.20
2023-10-11T09:00:33.133Z,82.10
2023-10-11T09:03:19.059Z,82.10
2023-10-11T09:05:49.542Z,81.90
2023-10-11T09:08:29.599Z,81.80
2023-10-11T09:11:13.818Z,81.80
2023-10-11T09:13:41.376Z,81.70
2023-10-11T09:16:14.818Z,81.70
2023-10-11T09:18:43.566Z,81.80
2023-10-11T09:21:17.239Z,81.80
2023-10-11T09:23:51.491Z,81.90
2023-10-11T09:29:07.621Z,81.80
2023-10-11T09:31:35.198Z,81.80
2023-10-11T09:34:08.005Z,81.80
2023-10-11T09:36:35.169Z,81.80
2023-10-11T09:39:06.311Z,81.80
2023-10-11T09:41:44.153Z,81.70
2023-10-11T09:44:18.279Z,81.70
2023-10-11T09:46:50.451Z,81.60
2023-10-11T09:49:23.854Z,81.50
2023-10-11T09:51:55.366Z,81.40
2023-10-11T09:54:22.501Z,81.30
2023-10-11T09:56:53.028Z,81.20
2023-10-11T09:59:29.431Z,81.20
2023-10-11T10:01:58.120Z,81.10
2023-10-11T10:04:46.512Z,81.10
2023-10-11T10:07:18.394Z,81.10
2023-10-11T10:09:56.388Z,81.20
2023-10-11T10:12:27.295Z,81.20
2023-10-11T10:15:47.112Z,81.10
2023-10-11T10:18:17.820Z,81.20
2023-10-11T10:20:45.347Z,81.10
2023-10-11T10:23:22.639Z,81.20
2023-10-11T10:25:52.185Z,81.30
2023-10-11T10:28:40.842Z,81.40
2023-10-11T10:31:22.190Z,81.40
2023-10-11T10:33:51.696Z,81.40
2023-10-11T10:36:18.734Z,81.40
2023-10-11T10:39:24.334Z,81.90
2023-10-11T10:42:13.688Z,81.30
2023-10-11T10:44:52.164Z,81.40
2023-10-11T10:47:26.298Z,81.40
2023-10-11T10:49:55.652Z,81.40
2023-10-11T10:52:27.505Z,81.40
2023-10-11T10:55:03.970Z,81.40
2023-10-11T10:57:41.856Z,81.30
2023-10-11T11:00:21.164Z,81.30
2023-10-11T11:02:50.451Z,81.20
2023-10-11T11:05:20.318Z,81.20
2023-10-11T11:07:50.255Z,81.10
2023-10-11T11:10:21.481Z,81.10
2023-10-11T11:12:49.071Z,81.10
2023-10-11T11:15:22.424Z,81.10
2023-10-11T11:20:54.809Z,80.90
2023-10-11T11:23:28.292Z,80.80
2023-10-11T11:26:06.288Z,80.70
2023-10-11T11:28:41.803Z,80.70
2023-10-11T11:31:32.073Z,80.70
2023-10-11T11:34:14.957Z,80.60
2023-10-11T11:36:42.781Z,80.70
2023-10-11T11:39:43.673Z,80.80
2023-10-11T11:42:26.392Z,80.80
2023-10-11T11:44:56.729Z,80.80
2023-10-11T11:47:32.965Z,80.60
2023-10-11T11:50:07.171Z,80.60
2023-10-11T11:52:36.723Z,80.60
2023-10-11T11:55:13.471Z,80.60
2023-10-11T11:57:40.921Z,80.60
2023-10-11T12:00:30.056Z,80.50
2023-10-11T12:02:59.701Z,80.40
2023-10-11T12:05:54.142Z,80.20
2023-10-11T12:08:21.307Z,80.00
2023-10-11T12:10:51.827Z,79.90
2023-10-11T12:13:29.791Z,80.00
2023-10-11T12:16:10.699Z,80.00
2023-10-11T12:18:40.225Z,80.00
2023-10-11T12:21:32.517Z,80.00
2023-10-11T12:24:11.458Z,80.00
2023-10-11T12:26:46.976Z,80.00
2023-10-11T12:29:19.551Z,79.90
2023-10-11T12:31:46.525Z,79.80
2023-10-11T12:34:13.401Z,79.80
2023-10-11T12:36:42.937Z,79.70
2023-10-11T12:39:10.340Z,79.60
2023-10-11T12:41:40.557Z,79.80
2023-10-11T12:44:10.505Z,79.90
2023-10-11T12:46:44.783Z,80.00
2023-10-11T12:49:19.115Z,80.00
2023-10-11T12:51:51.709Z,80.00
2023-10-11T12:54:29.243Z,80.00
2023-10-11T12:56:59.156Z,80.10
2023-10-11T12:59:28.593Z,80.10
2023-10-11T13:02:00.279Z,80.10
2023-10-11T13:04:33.911Z,79.90
2023-10-11T13:07:01.136Z,80.00
2023-10-11T13:09:31.919Z,80.00
2023-10-11T13:12:02.200Z,80.00
2023-10-11T13:14:33.705Z,80.00
2023-10-11T13:17:01.649Z,80.00
2023-10-11T13:19:31.454Z,79.70
2023-10-11T13:21:59.761Z,79.80
2023-10-11T13:24:27.260Z,79.80
2023-10-11T13:26:55.931Z,79.90
2023-10-11T13:29:26.114Z,79.90
2023-10-11T13:31:54.700Z,79.90
2023-10-11T13:34:24.583Z,79.90
2023-10-11T13:36:55.162Z,80.00
2023-10-11T13:39:41.594Z,80.10
2023-10-11T13:42:11.840Z,80.10
2023-10-11T13:44:46.487Z,80.10
2023-10-11T13:47:18.335Z,80.00
2023-10-11T13:49:55.564Z,79.90
2023-10-11T13:52:47.368Z,79.90
2023-10-11T13:55:20.342Z,79.90
2023-10-11T13:57:55.168Z,79.90
2023-10-11T14:00:45.350Z,79.90
2023-10-11T14:03:56.931Z,79.90
2023-10-11T14:06:45.809Z,79.90
2023-10-11T14:09:18.965Z,79.80
2023-10-11T14:11:48.298Z,79.90
2023-10-11T14:14:22.827Z,80.00
2023-10-11T14:16:52.298Z,80.00
2023-10-11T14:19:19.587Z,80.10
2023-10-11T14:21:48.892Z,80.30
2023-10-11T14:24:20.108Z,80.80
2023-10-11T14:26:53.101Z,80.40
2023-10-11T14:33:10.880Z,80.30
2023-10-11T14:39:08.461Z,80.40
2023-10-11T14:42:24.895Z,80.20
2023-10-11T14:55:26.019Z,79.90
2023-10-11T14:57:53.620Z,79.90
2023-10-11T15:00:27.657Z,79.90
2023-10-11T15:02:58.484Z,79.90
2023-10-11T15:09:01.419Z,80.00
2023-10-11T15:11:30.597Z,80.00
2023-10-11T15:14:17.036Z,80.00
2023-10-11T15:47:35.324Z,80.30
2023-10-11T15:50:05.310Z,80.30
2023-10-11T15:52:34.840Z,80.40
2023-10-11T15:55:09.873Z,80.50
2023-10-11T15:57:44.482Z,80.50
2023-10-11T16:00:14.806Z,80.60
2023-10-11T16:02:46.274Z,80.60
2023-10-11T16:05:13.876Z,80.70
2023-10-11T16:08:04.603Z,80.70
2023-10-11T16:10:32.577Z,80.80
2023-10-11T16:13:02.585Z,80.80
2023-10-11T16:15:30.983Z,80.90
2023-10-11T16:22:12.433Z,80.90
2023-10-11T16:25:35.948Z,80.90
2023-10-11T16:34:46.400Z,80.90
2023-10-11T16:41:30.196Z,80.90
2023-10-11T16:45:26.986Z,81.00
2023-10-11T16:47:51.217Z,81.00
2023-10-11T16:50:39.181Z,81.00
2023-10-11T17:04:25.656Z,81.00
2023-10-11T17:42:09.911Z,81.20
2023-10-11T17:44:44.304Z,81.10
2023-10-11T17:47:12.127Z,81.10
2023-10-11T17:49:39.983Z,81.20
2023-10-11T17:52:07.038Z,81.20
2023-10-11T17:54:34.116Z,81.30
2023-10-11T17:57:01.118Z,81.30
2023-10-11T17:59:27.995Z,81.30
2023-10-11T18:01:54.981Z,81.30
2023-10-11T18:04:25.622Z,81.40
2023-10-11T18:06:56.522Z,81.40
2023-10-11T18:09:23.419Z,81.30
2023-10-11T18:11:50.392Z,81.30
2023-10-11T18:14:17.559Z,81.30
2023-10-11T18:16:44.740Z,81.40
2023-10-11T18:19:17.300Z,81.40
2023-10-11T18:21:45.227Z,81.40
2023-10-11T18:24:12.304Z,81.40
2023-10-11T18:26:39.180Z,81.40
2023-10-11T18:29:09.244Z,81.40
2023-10-11T18:31:38.571Z,81.40
2023-10-11T18:34:05.503Z,81.40
2023-10-11T18:36:32.405Z,81.40
2023-10-11T18:38:59.421Z,81.40
2023-10-11T18:41:26.422Z,81.40
2023-10-11T18:43:54.332Z,81.50
2023-10-11T18:46:23.497Z,81.50
2023-10-11T18:48:51.476Z,81.60
2023-10-11T18:51:21.016Z,81.70
2023-10-11T18:53:48.391Z,81.80
2023-10-11T18:56:24.775Z,81.80
2023-10-11T18:58:52.243Z,81.80
2023-10-11T19:01:19.459Z,81.90
2023-10-11T19:03:46.768Z,81.90
2023-10-11T19:06:40.136Z,82.00
2023-10-11T19:09:10.249Z,82.00
2023-10-11T19:11:44.300Z,82.10
2023-10-11T19:14:11.228Z,82.10
2023-10-11T19:16:38.339Z,82.10
2023-10-11T19:21:48.965Z,82.10
2023-10-11T19:25:08.455Z,82.10
2023-10-11T19:27:58.015Z,82.10
2023-10-11T19:30:34.356Z,82.10
2023-10-11T19:33:02.152Z,82.10
2023-10-11T19:39:24.596Z,82.20
2023-10-11T19:55:54.019Z,82.20
2023-10-11T20:09:20.066Z,82.40
2023-10-11T20:11:47.278Z,82.50
2023-10-11T20:42:31.934Z,82.60
2023-10-11T20:56:28.700Z,82.60
2023-10-11T21:02:42.845Z,82.60
2023-10-11T21:09:17.708Z,82.80
2023-10-11T21:15:07.990Z,82.90
2023-10-11T21:17:53.056Z,83.00
2023-10-11T21:20:24.611Z,83.00
2023-10-11T21:23:08.300Z,83.10
2023-10-11T21:26:11.085Z,83.10
